KVKS/VKS METAR and TAF weather

Enter ICAO airport designator
Station Type Date Time Source
KVKS METAR 2021/04/18 03:35 UTC NOAA

KVKS 180335Z AUTO 00000KT 10SM CLR 12/12 A3001 RMK A01


Station Type Date Time Source
KVKS Decoded METAR 2021/04/18 03:35 UTC NOAA

Vicksburg Municipal, MS, United States (KVKS) 32-14N 090-56W
Apr 17, 2021 - 11:35 PM EDT / 2021.04.18 0335 UTC
Wind: Calm:0
Visibility: 10 mile(s):0
Sky conditions: clear
Temperature: 53 F (12 C)
Dew Point: 53 F (12 C)
Relative Humidity: 100%
Pressure (altimeter): 30.01 in. Hg (1016 hPa)
ob: KVKS 180335Z AUTO 00000KT 10SM CLR 12/12 A3001 RMK A01
cycle: 3

Station Type Date Time Source
KVKS TAF UTC NOAA

Error!

Example: see airport list